createdAt,value
2018-05-02T00:02:02.485Z,101304.63
2018-05-02T00:04:30.850Z,101318.67
2018-05-02T00:06:59.785Z,101321.30
2018-05-02T00:09:28.203Z,101328.48
2018-05-02T00:11:56.779Z,101325.98
2018-05-02T00:14:25.159Z,101321.44
2018-05-02T00:16:53.637Z,101319.18
2018-05-02T00:19:22.028Z,101316.50
2018-05-02T00:21:50.382Z,101321.50
2018-05-02T00:24:18.742Z,101324.48
2018-05-02T00:26:47.157Z,101328.74
2018-05-02T00:29:15.509Z,101322.75
2018-05-02T00:31:44.239Z,101323.04
2018-05-02T00:34:12.588Z,101324.61
2018-05-02T00:36:40.938Z,101323.94
2018-05-02T00:39:09.336Z,101326.28
2018-05-02T00:41:37.869Z,101332.47
2018-05-02T00:44:06.243Z,101333.07
2018-05-02T00:46:34.595Z,101336.98
2018-05-02T00:49:14.001Z,101338.87
2018-05-02T00:51:42.712Z,101345.84
2018-05-02T00:54:11.136Z,101343.52
2018-05-02T00:56:39.502Z,101342.80
2018-05-02T00:59:07.898Z,101343.77
2018-05-02T01:01:36.499Z,101348.56
2018-05-02T01:04:05.024Z,101353.30
2018-05-02T01:06:33.376Z,101358.89
2018-05-02T01:09:01.743Z,101361.03
2018-05-02T01:11:30.114Z,101362.80
2018-05-02T01:13:58.588Z,101362.37
2018-05-02T01:16:26.979Z,101368.31
2018-05-02T01:18:55.937Z,101367.48
2018-05-02T01:21:25.191Z,101366.69
2018-05-02T01:23:53.549Z,101375.58
2018-05-02T01:26:21.891Z,101387.02
2018-05-02T01:28:50.255Z,101390.49
2018-05-02T01:31:18.624Z,101383.34
2018-05-02T01:33:47.270Z,101379.19
2018-05-02T01:36:15.631Z,101380.05
2018-05-02T01:38:44.124Z,101385.10
2018-05-02T01:41:12.476Z,101388.39
2018-05-02T01:43:40.815Z,101392.22
2018-05-02T01:46:09.169Z,101394.31
2018-05-02T01:48:37.528Z,101392.31
2018-05-02T01:51:05.949Z,101393.48
2018-05-02T01:53:34.317Z,101398.88
2018-05-02T01:56:02.662Z,101418.09
2018-05-02T01:58:31.007Z,101416.82
2018-05-02T02:00:59.468Z,101425.20
2018-05-02T02:03:27.850Z,101417.49
2018-05-02T02:05:56.348Z,101419.89
2018-05-02T02:08:25.353Z,101423.98
2018-05-02T02:10:53.797Z,101415.89
2018-05-02T02:13:22.219Z,101423.48
2018-05-02T02:15:50.593Z,101428.58
2018-05-02T02:18:19.038Z,101432.48
2018-05-02T02:20:47.383Z,101432.16
2018-05-02T02:23:15.751Z,101430.16
2018-05-02T02:25:45.342Z,101434.28
2018-05-02T02:28:14.097Z,101444.22
2018-05-02T02:30:43.415Z,101443.59
2018-05-02T02:33:12.564Z,101448.86
2018-05-02T02:35:40.971Z,101449.50
2018-05-02T02:38:09.311Z,101450.31
2018-05-02T02:40:38.332Z,101451.28
2018-05-02T02:43:07.321Z,101448.45
2018-05-02T02:45:37.052Z,101448.00
2018-05-02T02:48:06.257Z,101449.58
2018-05-02T02:50:35.154Z,101458.45
2018-05-02T02:53:04.326Z,101451.28
2018-05-02T02:55:32.725Z,101450.10
2018-05-02T02:58:02.287Z,101452.16
2018-05-02T03:00:30.894Z,101444.95
2018-05-02T03:02:59.532Z,101444.95
2018-05-02T03:05:28.889Z,101447.91
2018-05-02T03:07:57.989Z,101436.92
2018-05-02T03:10:26.391Z,101438.14
2018-05-02T03:12:55.547Z,101438.26
2018-05-02T03:15:24.593Z,101443.45
2018-05-02T03:17:53.500Z,101448.66
2018-05-02T03:20:22.308Z,101453.81
2018-05-02T03:22:51.294Z,101447.88
2018-05-02T03:25:19.894Z,101445.33
2018-05-02T03:27:48.749Z,101448.73
2018-05-02T03:30:17.105Z,101447.08
2018-05-02T03:32:46.389Z,101449.25
2018-05-02T03:35:15.566Z,101449.20
2018-05-02T03:37:44.449Z,101447.89
2018-05-02T03:40:13.105Z,101443.59
2018-05-02T03:42:42.509Z,101451.09
2018-05-02T03:45:12.584Z,101440.94
2018-05-02T03:47:41.418Z,101443.77
2018-05-02T03:50:09.783Z,101448.83
2018-05-02T03:52:38.432Z,101445.45
2018-05-02T03:55:06.894Z,101450.44
2018-05-02T03:57:35.916Z,101451.62
2018-05-02T04:00:18.074Z,101451.69
2018-05-02T04:02:58.458Z,101450.31
2018-05-02T04:05:38.892Z,101457.84
2018-05-02T04:08:07.227Z,101463.13
2018-05-02T04:10:35.660Z,101465.45
2018-05-02T04:13:04.775Z,101479.06
2018-05-02T04:15:33.205Z,101478.95
2018-05-02T04:18:01.549Z,101480.30
2018-05-02T04:20:29.991Z,101485.16
2018-05-02T04:22:58.409Z,101485.53
2018-05-02T04:25:27.275Z,101487.20
2018-05-02T04:27:55.868Z,101492.88
2018-05-02T04:30:24.350Z,101496.22
2018-05-02T04:32:52.714Z,101503.66
2018-05-02T04:35:21.188Z,101502.83
2018-05-02T04:37:49.946Z,101505.55
2018-05-02T04:40:18.964Z,101515.65
2018-05-02T04:42:47.305Z,101520.83
2018-05-02T04:45:15.652Z,101517.95
2018-05-02T04:47:44.284Z,101518.00
2018-05-02T04:50:12.717Z,101528.68
2018-05-02T04:52:41.471Z,101526.99
2018-05-02T04:55:10.180Z,101539.69
2018-05-02T04:57:38.863Z,101540.45
2018-05-02T05:00:07.372Z,101540.80
2018-05-02T05:02:35.742Z,101542.86
2018-05-02T05:05:04.325Z,101551.64
2018-05-02T05:07:32.677Z,101548.56
2018-05-02T05:10:01.033Z,101554.38
2018-05-02T05:12:29.892Z,101565.71
2018-05-02T05:14:58.244Z,101571.52
2018-05-02T05:17:26.850Z,101569.68
2018-05-02T05:19:55.732Z,101573.83
2018-05-02T05:22:24.359Z,101576.74
2018-05-02T05:24:52.719Z,101581.28
2018-05-02T05:27:21.343Z,101579.83
2018-05-02T05:29:49.786Z,101582.52
2018-05-02T05:32:19.000Z,101590.72
2018-05-02T05:34:47.677Z,101588.29
2018-05-02T05:37:16.049Z,101594.45
2018-05-02T05:39:44.630Z,101600.75
2018-05-02T05:42:13.335Z,101601.38
2018-05-02T05:44:41.743Z,101599.31
2018-05-02T05:47:10.110Z,101609.05
2018-05-02T05:49:38.660Z,101603.50
2018-05-02T05:52:07.597Z,101606.33
2018-05-02T05:54:35.972Z,101610.05
2018-05-02T05:57:05.243Z,101614.45
2018-05-02T05:59:33.932Z,101611.30
2018-05-02T06:02:02.609Z,101614.68
2018-05-02T06:04:32.054Z,101614.75
2018-05-02T06:07:01.567Z,101619.45
2018-05-02T06:09:30.378Z,101623.27
2018-05-02T06:11:59.613Z,101626.39
2018-05-02T06:14:27.978Z,101628.58
2018-05-02T06:16:56.432Z,101625.17
2018-05-02T06:19:25.177Z,101628.67
2018-05-02T06:21:53.891Z,101628.73
2018-05-02T06:24:22.255Z,101632.69
2018-05-02T06:26:50.623Z,101628.22
2018-05-02T06:29:19.374Z,101641.20
2018-05-02T06:31:48.125Z,101638.31
2018-05-02T06:34:16.528Z,101644.86
2018-05-02T06:36:44.892Z,101643.22
2018-05-02T06:39:13.588Z,101648.31
2018-05-02T06:41:42.159Z,101638.98
2018-05-02T06:44:10.933Z,101634.94
2018-05-02T06:46:39.717Z,101633.78
2018-05-02T06:49:08.629Z,101636.48
2018-05-02T06:51:37.000Z,101639.34
2018-05-02T06:54:05.361Z,101650.25
2018-05-02T06:56:33.720Z,101645.13
2018-05-02T06:59:02.312Z,101645.17
2018-05-02T07:01:30.776Z,101635.69
2018-05-02T07:03:59.226Z,101636.13
2018-05-02T07:06:28.355Z,101640.38
2018-05-02T07:08:57.095Z,101642.63
2018-05-02T07:11:25.613Z,101651.91
2018-05-02T07:13:54.230Z,101650.38
2018-05-02T07:16:23.588Z,101653.23
2018-05-02T07:18:52.124Z,101657.41
2018-05-02T07:21:21.424Z,101661.27
2018-05-02T07:23:49.879Z,101670.27
2018-05-02T07:26:18.677Z,101679.70
2018-05-02T07:28:48.084Z,101678.66
2018-05-02T07:31:17.193Z,101691.34
2018-05-02T07:33:46.350Z,101697.09
2018-05-02T07:36:15.107Z,101702.09
2018-05-02T07:38:44.326Z,101698.37
2018-05-02T07:41:12.921Z,101694.59
2018-05-02T07:43:41.981Z,101700.51
2018-05-02T07:46:10.449Z,101692.56
2018-05-02T07:48:38.902Z,101692.98
2018-05-02T07:51:08.151Z,101695.36
2018-05-02T07:53:36.934Z,101712.05
2018-05-02T07:56:05.323Z,101703.05
2018-05-02T07:58:33.914Z,101707.03
2018-05-02T08:01:02.586Z,101710.41
2018-05-02T08:03:31.213Z,101714.06
2018-05-02T08:06:00.455Z,101708.80
2018-05-02T08:08:28.816Z,101717.68
2018-05-02T08:10:58.068Z,101716.25
2018-05-02T08:13:26.436Z,101735.34
2018-05-02T08:15:55.208Z,101722.73
2018-05-02T08:18:23.612Z,101728.64
2018-05-02T08:20:52.037Z,101732.36
2018-05-02T08:23:21.096Z,101731.92
2018-05-02T08:25:49.467Z,101736.68
2018-05-02T08:28:18.106Z,101735.02
2018-05-02T08:30:47.143Z,101736.92
2018-05-02T08:33:15.680Z,101737.24
2018-05-02T08:35:44.038Z,101740.92
2018-05-02T08:38:12.391Z,101734.08
2018-05-02T08:40:41.287Z,101741.02
2018-05-02T08:43:10.040Z,101737.79
2018-05-02T08:45:38.623Z,101733.99
2018-05-02T08:48:06.988Z,101738.58
2018-05-02T08:50:35.353Z,101738.42
2018-05-02T08:53:04.840Z,101734.75
2018-05-02T08:55:33.339Z,101730.12
2018-05-02T08:58:02.611Z,101726.22
2018-05-02T09:00:32.251Z,101726.05
2018-05-02T09:03:01.478Z,101725.23
2018-05-02T09:05:29.925Z,101725.56
2018-05-02T09:07:59.429Z,101726.62
2018-05-02T09:10:29.381Z,101727.90
2018-05-02T09:12:58.005Z,101721.05
2018-05-02T09:15:26.480Z,101722.17
2018-05-02T09:17:54.851Z,101731.14
2018-05-02T09:20:23.384Z,101728.87
2018-05-02T09:22:51.995Z,101734.56
2018-05-02T09:25:21.184Z,101729.25
2018-05-02T09:27:49.541Z,101721.97
2018-05-02T09:30:18.286Z,101713.53
2018-05-02T09:32:46.637Z,101725.56
2018-05-02T09:35:15.073Z,101723.27
2018-05-02T09:37:43.440Z,101725.91
2018-05-02T09:40:11.808Z,101729.48
2018-05-02T09:42:40.481Z,101732.03
2018-05-02T09:45:08.978Z,101735.09
2018-05-02T09:47:37.631Z,101733.22
2018-05-02T09:50:06.101Z,101733.92
2018-05-02T09:52:34.541Z,101733.02
2018-05-02T09:55:03.464Z,101735.69
2018-05-02T09:57:32.071Z,101737.39
2018-05-02T10:00:00.774Z,101741.06
2018-05-02T10:02:29.239Z,101741.83
2018-05-02T10:04:58.558Z,101737.87
2018-05-02T10:07:27.686Z,101744.25
2018-05-02T10:09:56.648Z,101742.48
2018-05-02T10:12:26.318Z,101745.64
2018-05-02T10:14:54.662Z,101751.37
2018-05-02T10:17:23.902Z,101752.37
2018-05-02T10:19:52.964Z,101759.48
2018-05-02T10:22:21.328Z,101761.36
2018-05-02T10:24:49.728Z,101765.21
2018-05-02T10:27:18.485Z,101763.72
2018-05-02T10:29:46.997Z,101762.44
2018-05-02T10:32:16.368Z,101775.44
2018-05-02T10:34:44.750Z,101765.55
2018-05-02T10:37:13.168Z,101771.52
2018-05-02T10:39:41.560Z,101772.47
2018-05-02T10:42:09.997Z,101771.63
2018-05-02T10:44:38.417Z,101773.11
2018-05-02T10:47:06.784Z,101770.74
2018-05-02T10:49:35.140Z,101780.88
2018-05-02T10:52:03.509Z,101786.61
2018-05-02T10:54:31.870Z,101787.41
2018-05-02T11:01:02.149Z,101775.08
2018-05-02T11:03:30.606Z,101778.71
2018-05-02T11:05:59.519Z,101777.74
2018-05-02T11:08:28.571Z,101778.97
2018-05-02T11:10:56.893Z,101780.48
2018-05-02T11:13:25.310Z,101781.64
2018-05-02T11:15:54.545Z,101799.87
2018-05-02T11:18:23.657Z,101795.96
2018-05-02T11:20:52.830Z,101798.02
2018-05-02T11:23:21.427Z,101802.84
2018-05-02T11:25:49.857Z,101788.80
2018-05-02T11:28:18.233Z,101788.78
2018-05-02T11:30:46.677Z,101787.32
2018-05-02T11:33:15.072Z,101789.02
2018-05-02T11:35:43.591Z,101795.64
2018-05-02T11:38:13.031Z,101794.05
2018-05-02T12:06:07.603Z,101779.98
2018-05-02T12:08:37.053Z,101771.58
2018-05-02T12:11:06.135Z,101765.97
2018-05-02T12:13:34.562Z,101759.06
2018-05-02T12:16:02.988Z,101757.39
2018-05-02T12:18:31.365Z,101746.88
2018-05-02T12:20:59.777Z,101745.06
2018-05-02T12:23:28.120Z,101749.92
2018-05-02T12:29:28.267Z,101750.48
2018-05-02T12:31:56.627Z,101746.70
2018-05-02T12:34:25.077Z,101754.63
2018-05-02T12:36:53.523Z,101754.57
2018-05-02T12:39:21.884Z,101746.69
2018-05-02T12:41:50.338Z,101742.17
2018-05-02T12:44:18.757Z,101751.13
2018-05-02T12:46:47.297Z,101751.20
2018-05-02T12:49:16.157Z,101763.67
2018-05-02T12:51:44.605Z,101752.81
2018-05-02T12:54:13.248Z,101755.72
2018-05-02T12:56:41.809Z,101744.66
2018-05-02T12:59:10.183Z,101748.00
2018-05-02T13:01:39.440Z,101741.66
2018-05-02T13:04:07.804Z,101738.52
2018-05-02T13:06:36.175Z,101745.42
2018-05-02T13:09:04.612Z,101746.20
2018-05-02T13:11:33.197Z,101744.28
2018-05-02T13:14:01.555Z,101749.59
2018-05-02T13:16:30.088Z,101747.74
2018-05-02T13:18:59.476Z,101748.14
2018-05-02T13:21:27.905Z,101740.98
2018-05-02T13:23:56.273Z,101743.36
2018-05-02T13:26:25.293Z,101738.77
2018-05-02T13:28:53.720Z,101730.98
2018-05-02T13:31:22.323Z,101734.31
2018-05-02T13:33:50.761Z,101738.35
2018-05-02T13:36:19.131Z,101731.81
2018-05-02T13:38:47.655Z,101722.86
2018-05-02T13:41:16.094Z,101721.39
2018-05-02T13:43:44.468Z,101714.52
2018-05-02T13:46:12.824Z,101713.41
2018-05-02T13:48:41.241Z,101709.86
2018-05-02T13:51:10.533Z,101715.92
2018-05-02T13:53:39.187Z,101721.08
2018-05-02T13:56:08.563Z,101718.05
2018-05-02T13:58:38.125Z,101717.03
2018-05-02T14:01:06.507Z,101720.15
2018-05-02T14:03:35.196Z,101715.73
2018-05-02T14:06:03.616Z,101716.09
2018-05-02T14:08:31.999Z,101715.20
2018-05-02T14:11:02.132Z,101724.90
2018-05-02T14:13:30.872Z,101733.70
2018-05-02T14:15:59.471Z,101734.41
2018-05-02T14:18:28.009Z,101723.07
2018-05-02T14:20:56.368Z,101718.05
2018-05-02T14:23:25.445Z,101723.44
2018-05-02T14:25:55.198Z,101726.70
2018-05-02T14:28:23.550Z,101732.62
2018-05-02T14:30:51.929Z,101721.98
2018-05-02T14:33:20.374Z,101727.61
2018-05-02T14:35:48.870Z,101715.63
2018-05-02T14:38:17.287Z,101712.94
2018-05-02T14:40:46.540Z,101704.52
2018-05-02T14:43:16.105Z,101703.03
2018-05-02T14:45:44.551Z,101708.84
2018-05-02T14:48:13.285Z,101707.98
2018-05-02T14:50:42.410Z,101708.55
2018-05-02T14:53:11.497Z,101706.98
2018-05-02T14:55:40.912Z,101708.97
2018-05-02T14:58:09.432Z,101703.75
2018-05-02T15:00:37.862Z,101701.89
2018-05-02T15:03:06.232Z,101706.82
2018-05-02T15:05:35.024Z,101702.26
2018-05-02T15:08:03.468Z,101702.84
2018-05-02T15:10:32.838Z,101696.98
2018-05-02T15:13:01.194Z,101690.17
2018-05-02T15:15:30.756Z,101692.33
2018-05-02T15:17:59.328Z,101687.63
2018-05-02T15:20:27.727Z,101676.92
2018-05-02T15:22:56.093Z,101677.86
2018-05-02T15:25:24.879Z,101675.56
2018-05-02T15:27:53.237Z,101686.91
2018-05-02T15:30:21.601Z,101691.05
2018-05-02T15:32:49.996Z,101690.73
2018-05-02T15:35:18.547Z,101691.20
2018-05-02T15:37:47.835Z,101695.46
2018-05-02T15:40:17.328Z,101688.55
2018-05-02T15:42:45.866Z,101684.45
2018-05-02T15:45:14.842Z,101682.80
2018-05-02T15:47:43.571Z,101677.28
2018-05-02T15:50:12.294Z,101672.88
2018-05-02T15:52:41.221Z,101667.51
2018-05-02T15:55:10.161Z,101668.17
2018-05-02T15:57:38.806Z,101664.95
2018-05-02T16:00:07.208Z,101664.92
2018-05-02T16:02:35.919Z,101659.23
2018-05-02T16:17:37.073Z,101638.58
2018-05-02T16:20:07.270Z,101635.09
2018-05-02T16:22:36.160Z,101641.27
2018-05-02T16:25:04.972Z,101641.04
2018-05-02T16:27:34.590Z,101646.42
2018-05-02T16:30:03.346Z,101647.51
2018-05-02T16:32:32.391Z,101631.31
2018-05-02T16:35:01.092Z,101630.41
2018-05-02T16:37:29.564Z,101639.09
2018-05-02T16:39:58.616Z,101637.66
2018-05-02T16:42:27.008Z,101631.50
2018-05-02T16:44:55.480Z,101633.66
2018-05-02T16:47:25.016Z,101632.17
2018-05-02T16:49:53.403Z,101633.50
2018-05-02T16:52:22.145Z,101630.61
2018-05-02T16:54:50.571Z,101632.59
2018-05-02T16:57:19.365Z,101621.86
2018-05-02T16:59:48.808Z,101620.55
2018-05-02T17:02:18.148Z,101619.83
2018-05-02T17:04:46.927Z,101625.39
2018-05-02T17:07:15.322Z,101628.86
2018-05-02T17:09:44.646Z,101635.03
2018-05-02T17:12:13.017Z,101630.70
2018-05-02T17:14:41.385Z,101624.80
2018-05-02T17:17:09.744Z,101616.02
2018-05-02T17:19:39.295Z,101614.75
2018-05-02T17:22:08.345Z,101608.55
2018-05-02T17:24:36.997Z,101607.31
2018-05-02T17:27:05.359Z,101617.08
2018-05-02T17:29:33.847Z,101616.66
2018-05-02T17:32:02.511Z,101622.26
2018-05-02T17:34:30.904Z,101629.93
2018-05-02T17:36:59.423Z,101638.36
2018-05-02T17:39:28.414Z,101627.28
2018-05-02T17:41:57.052Z,101628.86
2018-05-02T17:44:25.470Z,101617.34
2018-05-02T17:46:54.247Z,101605.25
2018-05-02T17:49:22.628Z,101603.47
2018-05-02T17:51:51.340Z,101605.12
2018-05-02T17:54:20.105Z,101603.72
2018-05-02T17:56:48.620Z,101613.34
2018-05-02T17:59:16.978Z,101609.97
2018-05-02T18:01:45.353Z,101600.30
2018-05-02T18:04:13.784Z,101602.92
2018-05-02T18:06:42.312Z,101605.58
2018-05-02T18:09:10.849Z,101607.38
2018-05-02T18:11:39.440Z,101606.22
2018-05-02T18:14:07.857Z,101599.99
2018-05-02T18:16:36.402Z,101603.66
2018-05-02T18:19:04.871Z,101594.88
2018-05-02T18:21:34.025Z,101591.48
2018-05-02T18:24:02.558Z,101588.89
2018-05-02T18:26:30.978Z,101593.98
2018-05-02T18:28:59.573Z,101585.50
2018-05-02T18:31:28.055Z,101582.53
2018-05-02T18:33:56.434Z,101576.61
2018-05-02T18:36:25.702Z,101573.66
2018-05-02T18:38:54.182Z,101586.35
2018-05-02T18:41:22.551Z,101580.83
2018-05-02T18:43:51.692Z,101582.14
2018-05-02T18:46:20.061Z,101577.07
2018-05-02T18:48:48.448Z,101581.17
2018-05-02T18:51:17.256Z,101583.59
2018-05-02T18:53:45.700Z,101590.62
2018-05-02T18:56:14.081Z,101594.38
2018-05-02T18:58:43.062Z,101604.65
2018-05-02T19:01:11.426Z,101600.91
2018-05-02T19:03:39.895Z,101604.64
2018-05-02T19:06:08.276Z,101603.94
2018-05-02T19:08:36.704Z,101602.13
2018-05-02T19:11:05.326Z,101604.50
2018-05-02T19:13:39.373Z,101605.98
2018-05-02T19:16:07.767Z,101602.71
2018-05-02T19:18:41.657Z,101597.77
2018-05-02T19:21:10.168Z,101596.55
2018-05-02T19:23:38.701Z,101594.45
2018-05-02T19:26:12.765Z,101595.67
2018-05-02T19:28:41.809Z,101593.06
2018-05-02T19:31:16.660Z,101592.44
2018-05-02T19:33:50.701Z,101582.86
2018-05-02T19:36:19.170Z,101584.84
2018-05-02T19:38:47.608Z,101591.18
2018-05-02T19:41:22.657Z,101581.26
2018-05-02T19:43:56.752Z,101575.98
2018-05-02T19:46:25.273Z,101574.66
2018-05-02T19:48:54.016Z,101572.95
2018-05-02T19:51:28.047Z,101565.67
2018-05-02T19:53:56.483Z,101568.62
2018-05-02T19:56:25.646Z,101566.48
2018-05-02T19:58:54.299Z,101557.24
2018-05-02T20:35:03.514Z,101516.03
2018-05-02T20:37:31.966Z,101518.39
